Ivugivik, Canada
Current Conditions -  °F | °C
As of 2:15 AM on Thursday 29 Jan 2015 (Local Time) from CYTE Reporting Station
Overcast Overcast  
Wind Chill: -4°   Ceiling: 900
Heat Index: -4°   Visibility: 9mi
Dew Point: -8°   Wind: 2mph
Humidity: 85%   Direction: NA
Pressure: 29.46"   Gusts: NA
Location:  62.42°N, 77.9°W
Report Text: CYTE 290615Z AUTO VRB02KT 9SM OVC009 M20/M22 A2946 RMK SLP982
Loading
Personal Weather Stations






























Interactive Weather Map New forecast layout! Learn more

10-Day Weather Forecast

Advertisements
Track Severe Weather on mobile